Flight Track Log - Related Links

Times and Time Zones

All times are in EDT time to prevent confusion due to time zone crossing. See the N511DP flight status page for this flight to view local times or setup timezone preferences in your user account.

Time Position Orientation Groundspeed Altitude Reporting Facility
EDT Latitude Longitude Course Direction KTS MPH feet Rate Location/Type
Wed 10:21:58 AM 30.1683 -92.0075 289° West 151 174 3,800  Level Houston Center
Wed 10:23:00 AM 30.1594 -92.0578 258° West 161 185 5,600 1,742 Climbing Houston Center
Wed 10:24:02 AM 30.1506 -92.1056 258° West 155 178 7,400 1,839 Climbing Houston Center
Wed 10:25:04 AM 30.1350 -92.1633 253° West 157 181 9,400 1,790 Climbing Houston Center
Wed 10:26:00 AM 29.9515 -92.3228 232° Southwest  Level FlightAware Approximate
Wed 10:26:06 AM 30.1219 -92.2131 253° West 161 185 11,100  Level Houston Center
Wed 10:27:00 AM 29.9208 -92.3803 289° West  Level FlightAware Approximate
Wed 10:27:08 AM 30.1297 -92.2675 279° West 171 197 12,500  Level Houston Center
Wed 10:28:10 AM 30.1294 -92.3222 270° West 171 197 14,100 1,597 Climbing Houston Center
Wed 10:29:12 AM 30.1311 -92.3783 272° West 174 200 15,800 912 Climbing Houston Center
Wed 10:30:15 AM 30.1314 -92.4425 270° West 199 229 16,000 96 Climbing Houston Center
Wed 10:31:17 AM 30.1336 -92.5361 272° West 243 280 16,000  Level Houston Center
Wed 10:32:19 AM 30.1356 -92.6183 272° West 255 293 16,000  Level Houston Center
Wed 10:33:21 AM 30.1369 -92.7008 271° West 258 297 16,000  Level Houston Center
Wed 10:34:23 AM 30.1378 -92.7839 271° West 259 298 16,000  Level Houston Center
Wed 10:35:25 AM 30.1392 -92.8667 271° West 259 298 16,000  Level Houston Center
Wed 10:36:27 AM 30.1397 -92.9506 270° West 260 299 16,000  Level Houston Center
Wed 10:37:29 AM 30.1422 -93.0519 272° West 262 302 16,000 -194 Level Houston Center
Wed 10:38:31 AM 30.1436 -93.1369 271° West 263 303 15,600 -432 Descending Houston Center
Wed 10:39:34 AM 30.1464 -93.2225 272° West 267 307 15,100 -624 Descending Houston Center
Wed 10:40:36 AM 30.1494 -93.3089 272° West 268 308 14,300 -774 Descending Houston Center
Wed 10:41:38 AM 30.1531 -93.3967 273° West 272 313 13,500 -823 Descending Houston Center
Wed 10:42:40 AM 30.1564 -93.4844 273° West 271 312 12,600 -1,000 Descending Houston Center
Wed 10:43:26 AM 30.1586 -93.5639 272° West 269 310 11,700 -968 Descending Houston Center
Wed 10:43:42 AM 30.1592 -93.5717 275° West 270 311 11,600 -857 Descending Houston Center
Wed 10:44:15 AM 30.1594 -93.6317 270° West 267 307 11,000 -581 Descending Houston Center
Wed 10:44:44 AM 30.1625 -93.6725 275° West 259 298 11,000  Level Houston Center
Wed 10:45:16 AM 30.1642 -93.7158 273° West 244 281 11,000  Level Houston Center
Wed 10:45:46 AM 30.1725 -93.7478 287° West 238 274 11,000 -393 Level Houston Center
Wed 10:46:17 AM 30.1778 -93.7864 279° West 235 270 10,600 -774 Descending Houston Center
Wed 10:46:48 AM 30.1833 -93.8244 280° West 240 276 10,200 -590 Descending Houston Center
Wed 10:47:18 AM 30.1883 -93.8697 277° West 249 287 10,000 -194 Descending Houston Center
Wed 10:47:50 AM 30.1961 -93.9028 285° West 246 283 10,000  Level Houston Center
Wed 10:48:25 AM 30.2031 -93.9525 279° West 237 273 10,000  Level Houston Center
Wed 10:48:53 AM 30.2089 -93.9775 285° West 238 274 10,000 -194 Level Houston Center
Wed 10:49:27 AM 30.2150 -94.0283 278° West 227 261 9,800 -387 Descending Houston Center
Wed 10:49:55 AM 30.2208 -94.0494 288° West 231 266 9,600 -689 Descending Houston Center
Wed 10:50:28 AM 30.2267 -94.1017 277° West 241 277 9,100 -677 Descending Houston Center
Wed 10:50:57 AM 30.2311 -94.1286 281° West 245 282 8,900 -689 Descending Houston Center
Wed 10:51:29 AM 30.2392 -94.1847 279° West 253 291 8,400 -774 Descending Houston Center
Wed 10:51:59 AM 30.2478 -94.2242 284° West 252 290 8,100 -393 Descending Houston Center
Wed 10:52:30 AM 30.2539 -94.2675 279° West 251 289 8,000 -97 Descending Houston Center
Wed 10:53:01 AM 30.2603 -94.3006 283° West 246 283 8,000  Level Houston Center
Wed 10:53:25 AM 30.2647 -94.3339 279° West 238 274 8,000  Level Houston Center
Wed 10:54:03 AM 30.2719 -94.3736 282° West 235 270 8,000 -197 Level Houston Center
Wed 10:54:26 AM 30.2742 -94.4103 274° West 230 265 7,800 -484 Descending Houston Center
Wed 10:55:05 AM 30.2814 -94.4497 282° West 237 273 7,500 -492 Descending Houston Center
Wed 10:55:27 AM 30.2858 -94.4861 278° West 243 280 7,300 -484 Descending Houston Center
Wed 10:56:07 AM 30.2953 -94.5333 283° West 242 278 7,000 -492 Descending Houston Center
Wed 10:56:28 AM 30.2981 -94.5669 275° West 240 276 6,800 -484 Descending Houston Center
Wed 10:57:09 AM 30.3144 -94.6069 295° West 241 277 6,500 -492 Descending Houston Center
Wed 10:57:29 AM 30.3283 -94.6406 296° West 248 285 6,300 -381 Descending Houston Center
Wed 10:58:12 AM 30.3439 -94.6778 296° West 244 281 6,100 -484 Descending Houston Center
Wed 10:58:31 AM 30.3561 -94.7119 293° West 246 283 5,800 -774 Descending Houston Center
Wed 10:59:14 AM 30.3753 -94.7503 300° West 250 288 5,300 -885 Descending Houston Center
Wed 10:59:32 AM 30.3864 -94.7858 290° West 249 287 4,900 -1,065 Descending Houston Center
Wed 11:00:16 AM 30.4094 -94.8386 297° West 252 290 4,200 -787 Descending Houston Center
Wed 11:00:33 AM 30.4169 -94.8642 289° West 251 289 4,100 -97 Descending Houston Center
Wed 11:01:18 AM 30.4386 -94.9122 298° West 243 280 4,100  Level Houston Center
Wed 11:01:34 AM 30.4464 -94.9308 296° West 237 273 4,100  Level Houston Center
Wed 11:02:20 AM 30.4672 -94.9775 297° West 230 265 4,100  Level Houston Center
Wed 11:02:35 AM 30.4733 -94.9953 292° West 221 254 4,100  Level Houston Center
Wed 11:03:22 AM 30.4942 -95.0428 297° West 225 259 4,100  Level Houston Center
Wed 11:04:24 AM 30.5203 -95.1092 295° West 225 259 4,100  Level Houston Center
Wed 11:05:38 AM 30.5344 -95.2011 280° West 219 252 4,100  Level Houston Center
Wed 11:06:28 AM 30.5442 -95.2481 284° West 221 254 4,100  Level Houston Center
Wed 11:07:40 AM 30.5603 -95.3436 281° West 223 257 4,100  Level Houston Center
Wed 11:08:33 AM 30.5731 -95.4019 284° West 222 255 4,100 -52 Level Houston Center
Wed 11:09:35 AM 30.5850 -95.4667 282° West 224 258 4,000 -339 Descending Houston Center
Wed 11:10:37 AM 30.5517 -95.5225 235° Southwest 214 246 3,400 -484 Descending Houston Center
Wed 11:11:39 AM 30.4969 -95.5269 184° South 183 211 3,000 -339 Descending Houston Center
Wed 11:12:41 AM 30.4619 -95.4961 143° Southeast 162 186 2,700 -545 Descending Houston Center
Wed 11:13:40 AM 30.4314 -95.4756 150° Southeast 119 137 1,900 -650 Descending Houston Center
Wed 11:14:41 AM 30.4044 -95.4544 146° Southeast 113 130 1,400 -590 Descending Houston Center
Wed 11:15:42 AM 30.3728 -95.4294 146° Southeast 125 144 700 -689 Descending Houston Center

Login

Don't have an account? Register now (free) for customized features, flight alerts, and more!